Latest Weather Observations for Sheoaks

IDV60901

Issued at 10:11 pm EDT Saturday 25 February 2017 (issued every 10 minutes, with the page automatically refreshed every 10 minutes)

About weather observations | Map of Melbourne area stations | Latest observations for Melbourne area | Other Formats
Station Details ID: 087168 Name: SHEOAKS Lat: -37.91 Lon: 144.13 Height: 236.7 m
Data from the previous 72 hours. | See also: Recent months at Sheoaks
Date/Time
EDT
Temp
°C
App
Temp
°C
Dew
Point
°C
Rel
Hum
%
Delta-T
°C
Wind Press
QNH
hPa
Press
MSL
hPa
Rain since
9am
mm
Dir  Spd
km/h
Gust
km/h
Spd
kts
Gust
kts
25/10:00pm 14.1 12.6 9.3 73 2.5 S 7 11 4 6 1023.2 1022.5 0.0
25/09:30pm 14.0 12.6 9.0 72 2.6 S 6 9 3 5 1023.3 1022.6 0.0
25/09:00pm 13.4 11.9 9.1 75 2.2 SSE 7 11 4 6 1023.1 1022.4 0.0
25/08:30pm 13.8 11.4 8.8 72 2.6 SSE 11 17 6 9 1023.0 1022.3 0.0
25/08:00pm 14.4 11.1 8.1 66 3.2 SSE 15 26 8 14 1022.9 1022.2 0.0
25/07:30pm 15.5 11.6 7.3 58 4.1 SE 17 26 9 14 1022.6 1021.9 0.0
25/07:00pm 16.6 13.0 6.7 52 4.9 SSE 15 24 8 13 1022.6 1021.9 0.0
25/06:30pm 17.1 12.8 5.4 46 5.7 SSE 17 24 9 13 1022.6 1021.9 0.0
25/06:00pm 17.6 13.3 7.1 50 5.3 SSE 19 32 10 17 1022.6 1021.9 0.0
25/05:30pm 18.2 14.3 8.5 53 5.1 SSE 19 32 10 17 1022.6 1021.9 0.0
25/05:00pm 18.4 13.9 6.3 45 6.0 SSE 19 30 10 16 1022.7 1022.0 0.0
25/04:30pm 19.3 15.0 6.8 44 6.4 SSE 19 28 10 15 1022.8 1022.1 0.0
25/04:00pm 19.7 15.7 6.8 43 6.6 S 17 28 9 15 1022.9 1022.2 0.0
25/03:30pm 19.2 14.7 6.0 42 6.6 SSE 19 32 10 17 1022.9 1022.2 0.0
25/03:00pm 19.1 14.6 5.9 42 6.6 SSE 19 28 10 15 1023.1 1022.4 0.0
25/02:30pm 19.0 15.2 5.8 42 6.6 SE 15 28 8 15 1023.3 1022.6 0.0
25/02:00pm 18.4 13.7 5.3 42 6.4 SSE 19 28 10 15 1023.5 1022.8 0.0
25/01:30pm 18.1 14.0 6.0 45 6.0 SSE 17 32 9 17 1023.9 1023.3 0.0
25/01:00pm 17.5 12.7 4.8 43 6.1 SSE 19 30 10 16 1024.4 1023.8 0.0
25/12:30pm 17.2 12.9 5.2 45 5.8 SE 17 26 9 14 1024.6 1024.0 0.0
25/12:00pm 16.6 11.9 5.3 47 5.4 SE 19 33 10 18 1025.0 1024.3 0.0
25/11:30am 16.3 12.2 6.2 51 5.0 SSE 17 30 9 16 1025.3 1024.6 0.0
25/11:00am 15.4 10.2 5.3 51 4.8 SE 22 33 12 18 1025.6 1024.9 0.0
25/10:30am 15.4 11.1 5.3 51 4.9 SSE 17 26 9 14 1025.6 1024.9 0.0
25/10:00am 14.5 10.9 6.8 60 3.8 S 15 24 8 13 1025.5 1024.8 0.0
25/09:30am 14.1 10.5 6.7 61 3.6 S 15 26 8 14 1025.5 1024.8 0.0
25/09:00am 12.8 10.3 6.6 66 3.0 SSE 9 19 5 10 1025.5 1024.8 0.0
25/08:30am 12.3 9.9 7.0 70 2.6 S 9 13 5 7 1025.5 1024.8 0.0
25/08:00am 11.7 9.5 6.4 70 2.5 S 7 11 4 6 1025.4 1024.7 0.0
25/07:30am 10.4 8.3 6.0 74 2.1 S 6 7 3 4 1025.5 1024.8 0.0
25/07:00am 10.0 7.7 5.8 75 1.9 S 7 9 4 5 1025.3 1024.6 0.0
25/06:30am 10.1 7.9 6.4 78 1.7 S 7 9 4 5 1024.7 1024.1 0.0
25/06:00am 10.3 8.2 6.6 78 1.7 S 7 11 4 6 1024.6 1024.0 0.0
25/05:30am 10.8 9.0 7.3 79 1.7 S 6 9 3 5 1024.6 1024.0 0.0
25/05:00am 10.2 8.2 6.9 80 1.6 SSE 7 9 4 5 1024.6 1024.0 0.0
25/04:30am 10.4 8.6 7.3 81 1.5 SSE 6 11 3 6 1024.7 1024.1 0.0
25/04:00am 10.5 8.8 7.6 82 1.4 SSE 6 11 3 6 1025.0 1024.3 0.0
25/03:30am 11.2 9.5 8.2 82 1.5 S 7 11 4 6 1025.0 1024.3 0.0
25/03:00am 11.8 10.3 8.5 80 1.6 SSE 6 13 3 7 1025.2 1024.5 0.0
25/02:30am 12.2 10.6 8.9 80 1.7 S 7 13 4 7 1025.4 1024.7 0.0
25/02:00am 12.1 10.7 8.9 81 1.6 SSE 6 13 3 7 1025.5 1024.8 0.0
25/01:30am 12.0 10.0 8.8 81 1.6 SSW 9 13 5 7 1025.6 1024.9 0.0
25/01:00am 11.7 10.1 8.2 79 1.7 S 6 9 3 5 1025.8 1025.1 0.0
25/12:30am 11.9 10.2 8.4 79 1.7 S 7 11 4 6 1025.9 1025.2 0.0
25/12:00am 12.0 10.5 8.5 79 1.7 S 6 9 3 5 1025.9 1025.2 0.0
 
Date/Time
EDT
Temp
°C
App
Temp
°C
Dew
Point
°C
Rel
Hum
%
Delta-T
°C
Wind Press
QNH
hPa
Press
MSL
hPa
Rain since
9am
mm
Dir  Spd
km/h
Gust
km/h
Spd
kts
Gust
kts
24/11:30pm 12.4 10.7 8.5 77 2.0 S 7 9 4 5 1026.0 1025.3 0.0
24/11:00pm 12.9 11.2 8.4 74 2.3 S 7 13 4 7 1026.2 1025.5 0.0
24/10:30pm 14.0 12.0 8.6 70 2.8 SSE 9 15 5 8 1026.2 1025.5 0.0
24/10:00pm 14.0 12.2 8.0 67 3.0 SSE 7 11 4 6 1026.3 1025.6 0.0
24/09:30pm 13.7 11.4 7.5 66 3.1 SSE 9 13 5 7 1026.3 1025.6 0.0
24/09:00pm 14.4 12.5 7.5 63 3.4 SSE 7 11 4 6 1026.2 1025.5 0.0
24/08:30pm 15.1 12.8 7.4 60 3.9 SSE 9 17 5 9 1025.9 1025.2 0.0
24/08:00pm 15.3 12.2 7.1 58 4.1 SSE 13 20 7 11 1025.6 1024.9 0.0
24/07:30pm 15.8 12.5 6.5 54 4.6 SSE 13 19 7 10 1025.4 1024.7 0.0
24/07:00pm 16.6 13.4 7.0 53 4.8 SSE 13 22 7 12 1025.3 1024.6 0.0
24/06:30pm 17.0 13.5 7.1 52 5.0 S 15 24 8 13 1025.3 1024.6 0.0
24/06:00pm 16.9 13.0 7.0 52 5.0 S 17 28 9 15 1025.1 1024.4 0.0
24/05:30pm 17.7 13.9 7.7 52 5.1 SSE 17 26 9 14 1025.1 1024.4 0.0
24/05:00pm 18.4 15.1 8.1 51 5.3 SE 15 22 8 12 1024.9 1024.2 0.0
24/04:30pm 19.4 16.1 8.1 48 5.9 SSE 15 22 8 12 1024.6 1024.0 0.0
24/04:00pm 20.1 16.7 7.5 44 6.5 SSW 15 24 8 13 1024.5 1023.9 0.0
24/03:30pm 19.1 15.9 6.9 45 6.2 S 13 20 7 11 1024.9 1024.2 0.0
24/03:00pm 19.6 16.1 7.4 45 6.3 SSE 15 24 8 13 1025.0 1024.3 0.0
24/02:30pm 18.4 15.6 6.9 47 5.8 S 11 22 6 12 1025.3 1024.6 0.0
24/02:00pm 18.7 15.6 7.2 47 5.8 S 13 24 7 13 1025.5 1024.8 0.0
24/01:30pm 18.1 14.9 6.9 48 5.7 S 13 20 7 11 1025.6 1024.9 0.0
24/01:00pm 18.0 14.3 6.5 47 5.7 S 15 30 8 16 1025.7 1025.0 0.0
24/12:30pm 18.0 14.0 6.8 48 5.6 SSW 17 26 9 14 1025.8 1025.1 0.0
24/12:00pm 19.1 15.6 7.2 46 6.1 S 15 24 8 13 1025.8 1025.1 0.0
24/11:30am 17.5 13.4 6.4 48 5.5 SSW 17 28 9 15 1026.0 1025.3 0.0
24/11:00am 16.6 12.4 5.9 49 5.2 S 17 24 9 13 1026.0 1025.3 0.0
24/10:30am 16.8 13.1 6.3 50 5.2 SSW 15 28 8 15 1025.9 1025.2 0.0
24/10:00am 15.7 12.3 5.9 52 4.8 S 13 22 7 12 1025.8 1025.1 0.0
24/09:30am 14.4 11.4 6.0 57 4.1 SSW 11 17 6 9 1025.5 1024.8 0.0
24/09:00am 14.3 10.1 5.9 57 4.0 SSW 17 26 9 14 1025.2 1024.5 0.0
24/08:30am 14.0 10.9 7.3 64 3.3 SSW 13 22 7 12 1025.0 1024.3 0.0
24/08:00am 13.4 11.6 7.8 69 2.8 SSW 7 13 4 7 1024.5 1023.9 0.0
24/07:30am 12.9 11.7 9.4 79 1.8 SW 6 9 3 5 1024.3 1023.7 0.0
24/07:00am 13.0 12.1 10.5 85 1.3 SW 6 9 3 5 1024.0 1023.4 0.0
24/06:30am 13.2 12.3 10.7 85 1.3 SW 6 7 3 4 1023.7 1023.1 0.0
24/06:00am 13.4 12.3 10.8 84 1.4 SW 7 13 4 7 1023.5 1022.8 0.0
24/05:30am 13.5 12.7 10.9 84 1.4 WSW 6 9 3 5 1023.2 1022.5 0.0
24/05:00am 13.7 12.9 10.9 83 1.5 WSW 6 11 3 6 1023.0 1022.3 0.0
24/04:30am 13.9 13.1 11.2 84 1.4 SW 6 7 3 4 1023.0 1022.3 0.0
24/04:00am 14.0 13.3 11.3 84 1.4 SW 6 9 3 5 1022.9 1022.2 0.0
24/03:30am 14.0 13.8 11.9 87 1.1 SW 4 7 2 4 1023.0 1022.3 0.0
24/03:00am 13.9 13.8 12.1 89 1.0 SW 4 9 2 5 1023.2 1022.5 0.0
24/02:30am 14.0 13.5 12.2 89 1.0 SW 6 9 3 5 1023.4 1022.7 0.0
24/02:00am 14.3 13.2 11.8 85 1.4 SW 9 15 5 8 1023.5 1022.8 0.0
24/01:30am 14.6 13.5 11.9 84 1.5 SW 9 15 5 8 1023.6 1023.0 0.0
24/01:00am 14.8 14.1 11.9 83 1.6 SW 7 13 4 7 1023.6 1023.0 0.0
24/12:30am 15.0 13.9 11.8 81 1.7 SW 9 17 5 9 1023.5 1022.8 0.0
24/12:00am 15.1 14.0 12.1 82 1.6 SSW 9 13 5 7 1023.5 1022.8 0.0
 
Date/Time
EDT
Temp
°C
App
Temp
°C
Dew
Point
°C
Rel
Hum
%
Delta-T
°C
Wind Press
QNH
hPa
Press
MSL
hPa
Rain since
9am
mm
Dir  Spd
km/h
Gust
km/h
Spd
kts
Gust
kts
23/11:30pm 15.1 14.0 12.1 82 1.6 SW 9 15 5 8 1023.3 1022.6 0.0
23/11:00pm 15.4 14.3 12.0 80 1.9 SW 9 13 5 7 1023.3 1022.6 0.0
23/10:30pm 15.9 14.9 12.3 79 2.0 SSW 9 15 5 8 1023.1 1022.4 0.0
23/10:00pm 16.0 14.3 12.4 79 2.0 SW 13 19 7 10 1023.0 1022.3 0.0
23/09:30pm 16.3 15.3 12.3 77 2.2 WSW 9 17 5 9 1022.7 1022.0 0.0
23/09:00pm 16.9 15.9 12.2 74 2.6 SW 9 17 5 9 1022.1 1021.4 0.0
23/08:30pm 17.7 15.9 12.2 70 3.1 SW 13 19 7 10 1021.4 1020.7 0.0
23/08:00pm 19.0 16.9 12.3 65 3.8 SW 15 22 8 12 1020.7 1020.0 0.0
23/07:30pm 20.7 18.0 11.6 56 5.1 SW 17 26 9 14 1020.2 1019.6 0.0
23/07:00pm 21.9 19.8 11.3 51 5.9 SW 13 19 7 10 1019.9 1019.3 0.0
23/06:30pm 22.9 20.5 11.3 48 6.5 WSW 15 28 8 15 1019.7 1019.0 0.0
23/06:00pm 23.8 21.4 11.5 46 7.0 SW 15 24 8 13 1019.4 1018.7 0.0
23/05:30pm 23.1 21.3 10.9 46 6.8 WSW 11 20 6 11 1019.0 1018.3 0.0
23/05:00pm 24.1 21.7 11.4 45 7.2 WSW 15 24 8 13 1018.6 1017.9 0.0
23/04:30pm 24.1 21.9 10.7 43 7.5 WSW 13 24 7 13 1018.6 1017.9 0.0
23/04:00pm 24.3 21.9 10.2 41 7.8 WSW 13 30 7 16 1018.5 1017.8 0.0
23/03:30pm 23.8 21.8 10.1 42 7.6 W 11 26 6 14 1018.5 1017.8 0.0
23/03:00pm 24.1 21.7 10.0 41 7.8 WSW 13 24 7 13 1018.6 1017.9 0.0
23/02:30pm 23.0 19.8 10.1 44 7.1 WSW 17 32 9 17 1018.7 1018.0 0.0
23/02:00pm 22.4 19.4 10.5 47 6.6 WSW 17 26 9 14 1018.7 1018.0 0.0
23/01:30pm 20.8 18.3 10.9 53 5.5 W 15 26 8 14 1018.9 1018.2 0.0
23/01:00pm 20.5 18.5 11.4 56 5.1 WSW 13 19 7 10 1018.9 1018.2 0.0
23/12:30pm 21.1 19.0 11.2 53 5.5 W 13 22 7 12 1018.8 1018.1 0.0
23/12:00pm 19.6 16.4 11.4 59 4.5 W 19 28 10 15 1018.9 1018.2 0.0
23/11:30am 18.8 15.5 11.6 63 4.0 W 20 41 11 22 1019.0 1018.3 0.0
23/11:00am 18.7 15.9 11.5 63 4.0 W 17 28 9 15 1018.8 1018.1 0.0
23/10:30am 18.7 15.9 11.5 63 4.0 WSW 17 33 9 18 1018.3 1017.6 0.0
23/10:00am 18.2 15.1 11.7 66 3.6 W 19 33 10 18 1017.9 1017.2 0.0
23/09:30am 18.0 14.8 11.8 67 3.4 WNW 20 30 11 16 1017.5 1016.8 0.0
23/09:00am 17.1 15.1 11.6 70 3.0 WNW 13 24 7 13 1017.2 1016.5 0.0
23/08:30am 16.4 14.1 11.6 73 2.6 WNW 15 22 8 12 1016.8 1016.1 0.0
23/08:00am 16.1 13.3 11.5 74 2.5 W 17 35 9 19 1016.6 1015.9 0.0
23/07:30am 14.9 13.1 10.7 76 2.2 W 11 22 6 12 1016.0 1015.2 0.0
23/07:00am 13.5 12.3 9.4 76 2.1 NNW 6 7 3 4 1015.3 1014.6 0.0
23/06:30am 14.0 11.8 9.2 73 2.5 NW 11 15 6 8 1014.6 1013.9 0.0
23/06:00am 13.8 11.8 8.8 72 2.6 NNW 9 11 5 6 1014.2 1013.5 0.0
23/05:30am 14.3 12.0 8.9 70 2.8 NW 11 13 6 7 1013.8 1013.1 0.0
23/05:00am 14.9 13.0 9.1 68 3.0 NW 9 17 5 9 1013.6 1012.9 0.0
23/04:30am 14.4 12.5 9.2 71 2.7 NW 9 13 5 7 1013.3 1012.6 0.0
23/04:00am 14.7 13.2 9.3 70 2.8 NW 7 11 4 6 1013.2 1012.5 0.0
23/03:30am 15.4 14.0 9.5 68 3.1 NW 7 11 4 6 1013.0 1012.3 0.0
23/03:00am 15.8 13.8 10.1 69 3.0 NNW 11 15 6 8 1012.9 1012.2 0.0
23/02:30am 15.9 14.4 10.4 70 2.9 NW 9 13 5 7 1012.9 1012.2 0.0
23/02:00am 15.7 14.0 11.1 74 2.5 NW 11 15 6 8 1012.9 1012.2 0.0
23/01:30am 15.7 14.4 11.1 74 2.5 NW 9 13 5 7 1012.9 1012.2 0.0
23/01:00am 15.6 14.3 11.2 75 2.4 NW 9 15 5 8 1012.6 1011.8 0.0
23/12:30am 15.9 14.2 11.3 74 2.5 NW 11 17 6 9 1012.4 1011.6 0.0
23/12:00am 16.3 15.4 11.2 72 2.8 NNW 7 11 4 6 1012.1 1011.3 0.0
 
Date/Time
EDT
Temp
°C
App
Temp
°C
Dew
Point
°C
Rel
Hum
%
Delta-T
°C
Wind Press
QNH
hPa
Press
MSL
hPa
Rain since
9am
mm
Dir  Spd
km/h
Gust
km/h
Spd
kts
Gust
kts
22/11:30pm 16.8 15.9 11.3 70 3.0 NW 7 13 4 7 1012.2 1011.4 0.0
22/11:00pm 17.3 16.0 11.3 68 3.3 NW 9 13 5 7 1012.1 1011.3 0.0
22/10:30pm 17.5 15.9 11.5 68 3.3 WNW 11 15 6 8 1011.6 1010.8 0.0

Latest Capital City Observations: Canberra | Sydney | Melbourne | Brisbane | Adelaide | Perth | Hobart | Darwin

Other Formats:

Comma delimited format used in spreadsheet applications
http://www.bom.gov.au/fwo/IDV60901/IDV60901.94863.axf

JavaScript Object Notation format (JSON) in row-major order
http://www.bom.gov.au/fwo/IDV60901/IDV60901.94863.json